Time;durP1;ratioP1;P1;durP2;ratioP2;P2;SDS_P1;SDS_P2;PMS_P1;PMS_P2;Temp;Humidity;BMP_temperature;BMP_pressure;BME280_temperature;BME280_humidity;BME280_pressure;Samples;Min_cycle;Max_cycle;Signal;HPM_P1;HPM_P2
2022/09/23 00:01:32;;;;;;;4.78;4.22;;;19.10;99.90;;;19.02;67.50;99185.72;5091713;27;20419;-75
2022/09/23 00:03:59;;;;;;;9.15;5.00;;;19.10;99.90;;;19.03;67.69;99187.31;5107618;28;20768;-75
2022/09/23 00:06:26;;;;;;;5.72;4.70;;;19.10;99.90;;;19.01;68.23;99186.84;5089074;28;20043;-75
2022/09/23 00:08:53;;;;;;;8.73;5.38;;;19.10;99.90;;;19.04;68.29;99178.75;5106177;27;20051;-76
2022/09/23 00:11:25;;;;;;;6.78;4.38;;;19.10;99.90;;;18.99;67.86;99169.88;5091935;27;20457;-75
2022/09/23 00:13:54;;;;;;;6.43;4.80;;;19.10;99.90;;;19.00;67.57;99171.47;5089742;28;20036;-75
2022/09/23 00:16:27;;;;;;;8.63;5.15;;;19.10;99.90;;;18.99;67.95;99180.88;5073219;28;20126;-75
2022/09/23 00:18:53;;;;;;;8.00;5.55;;;19.10;99.90;;;19.01;67.41;99178.59;5079554;28;20048;-75
2022/09/23 00:21:19;;;;;;;7.25;4.72;;;19.10;99.90;;;19.01;68.07;99167.63;5104849;27;20063;-75
2022/09/23 00:23:46;;;;;;;10.43;6.53;;;19.10;99.90;;;18.98;68.27;99162.72;5075481;27;20039;-75
2022/09/23 00:26:14;;;;;;;6.70;4.82;;;19.10;99.90;;;18.99;68.20;99164.38;5108142;27;20085;-75
2022/09/23 00:28:40;;;;;;;9.52;5.05;;;19.10;99.90;;;19.01;67.69;99160.16;5089878;28;20550;-75
2022/09/23 00:31:16;;;;;;;7.93;5.30;;;19.10;99.90;;;18.97;67.75;99164.69;5088652;27;20047;-75
2022/09/23 00:33:42;;;;;;;6.25;4.55;;;19.00;99.90;;;18.98;67.57;99163.56;5089967;27;20145;-75
2022/09/23 00:36:10;;;;;;;6.80;5.60;;;19.10;99.90;;;19.00;67.74;99165.97;5093796;27;20051;-75
2022/09/23 00:38:37;;;;;;;6.68;4.53;;;19.10;99.90;;;19.01;68.28;99167.63;5074603;28;20035;-76
2022/09/23 00:41:05;;;;;;;5.90;4.80;;;19.10;99.90;;;18.99;68.43;99164.38;5078535;27;20480;-76
2022/09/23 00:43:43;;;;;;;9.90;4.75;;;19.10;99.90;;;18.99;68.04;99158.88;5104968;27;20454;-76
2022/09/23 00:46:15;;;;;;;7.65;5.28;;;19.10;99.90;;;19.00;67.71;99150.28;5093900;27;20478;-75
2022/09/23 00:48:41;;;;;;;6.90;4.43;;;19.10;99.90;;;18.97;67.79;99158.38;5068471;28;20066;-76
2022/09/23 00:51:08;;;;;;;7.55;4.75;;;19.10;99.90;;;18.98;67.54;99151.72;5092667;28;20478;-75
2022/09/23 00:53:34;;;;;;;8.63;5.72;;;19.10;99.90;;;18.98;68.37;99155.31;5095093;28;20084;-75
2022/09/23 00:56:06;;;;;;;10.27;4.90;;;19.10;99.90;;;18.97;68.59;99150.13;5073780;28;20154;-76
2022/09/23 00:58:33;;;;;;;7.70;5.07;;;19.10;99.90;;;18.96;68.77;99154.03;5105882;28;20052;-75
2022/09/23 01:00:59;;;;;;;7.00;4.32;;;19.10;99.90;;;18.98;67.76;99162.72;5088716;28;20048;-75
2022/09/23 01:03:25;;;;;;;7.55;5.05;;;19.10;99.90;;;18.98;67.66;99157.22;5094858;28;20035;-75
2022/09/23 01:05:51;;;;;;;7.68;5.07;;;19.10;99.90;;;18.94;67.93;99153.53;5085279;28;20469;-75
2022/09/23 01:08:17;;;;;;;7.32;5.20;;;19.00;99.90;;;19.00;67.77;99160.47;5091096;28;20038;-75
2022/09/23 01:11:05;;;;;;;7.55;4.53;;;19.10;99.90;;;18.98;68.42;99151.72;5110030;28;20482;-75
2022/09/23 01:14:30;;;;;;;6.45;4.78;;;19.10;99.90;;;18.97;68.45;99155.63;5104481;28;20042;-75
2022/09/23 01:17:33;;;;;;;9.82;4.93;;;19.10;99.90;;;18.98;67.68;99154.47;5097448;28;20067;-75
2022/09/23 01:20:09;;;;;;;8.27;4.60;;;19.10;99.90;;;18.96;67.78;99145.78;5104243;28;20059;-75
2022/09/23 01:23:08;;;;;;;8.75;5.57;;;19.00;99.90;;;18.93;67.73;99149.97;5105563;28;20032;-75
2022/09/23 01:26:13;;;;;;;7.35;4.68;;;19.00;99.90;;;18.94;68.39;99146.09;5091446;28;20055;-75
2022/09/23 01:29:22;;;;;;;7.78;4.97;;;19.10;99.90;;;18.93;68.54;99147.22;5090460;28;20494;-75
2022/09/23 01:32:12;;;;;;;5.47;3.85;;;19.10;99.90;;;18.91;68.31;99145.94;5089554;28;20067;-75
2022/09/23 01:35:02;;;;;;;7.90;5.65;;;19.10;99.90;;;18.94;67.93;99135.09;5105600;28;20042;-75
2022/09/23 01:38:11;;;;;;;4.70;4.13;;;19.00;99.90;;;18.94;68.01;99134.28;5109160;28;20039;-75
2022/09/23 01:41:08;;;;;;;5.38;4.40;;;19.00;99.90;;;18.94;68.27;99135.09;5081731;28;20040;-75
2022/09/23 01:43:48;;;;;;;5.57;4.60;;;19.00;99.90;;;18.94;68.74;99134.28;5104533;28;20114;-75
2022/09/23 01:46:31;;;;;;;6.80;4.93;;;19.00;99.90;;;18.94;68.43;99135.09;5104354;28;20513;-75
2022/09/23 01:49:12;;;;;;;6.45;5.25;;;19.00;99.90;;;18.93;68.15;99138.97;5092723;28;20123;-75
2022/09/23 01:51:42;;;;;;;5.28;4.43;;;19.00;99.90;;;18.94;67.83;99134.28;5071011;28;20044;-75
2022/09/23 01:54:38;;;;;;;7.45;5.43;;;19.00;99.90;;;18.92;67.93;99131.84;5078800;28;20113;-75
2022/09/23 01:57:35;;;;;;;6.80;5.00;;;19.00;99.90;;;18.93;68.46;99136.22;5106485;28;20564;-75
2022/09/23 02:00:07;;;;;;;7.00;4.68;;;19.00;99.90;;;18.97;68.51;99130.88;5087209;28;20056;-75
2022/09/23 02:02:40;;;;;;;7.47;4.57;;;19.00;99.90;;;18.96;68.53;99135.56;5089339;28;20131;-75
2022/09/23 02:05:22;;;;;;;7.32;5.55;;;19.10;99.90;;;18.93;68.07;99130.72;5078589;27;20040;-75
2022/09/23 02:08:04;;;;;;;6.68;4.60;;;19.00;99.90;;;18.92;68.01;99137.34;5106909;27;20225;-75
2022/09/23 02:10:43;;;;;;;8.00;4.43;;;19.00;99.90;;;18.93;67.92;99138.16;5119143;27;20039;-75
2022/09/23 02:13:38;;;;;;;6.50;4.63;;;19.00;99.90;;;18.91;68.53;99134.94;5115482;27;20060;-75
2022/09/23 02:16:12;;;;;;;5.30;4.50;;;19.00;99.90;;;18.93;68.50;99129.91;5097262;27;20044;-75
2022/09/23 02:19:07;;;;;;;4.50;3.67;;;19.00;99.90;;;18.91;68.48;99132.97;5090674;28;20039;-75
2022/09/23 02:21:36;;;;;;;7.97;4.97;;;19.00;99.90;;;18.92;68.03;99131.84;5114851;27;20043;-75
2022/09/23 02:24:33;;;;;;;7.28;4.20;;;19.00;99.90;;;18.89;68.06;99134.44;5080135;27;20027;-75
2022/09/23 02:27:30;;;;;;;5.95;3.85;;;19.00;99.90;;;18.92;67.75;99139.28;5094206;28;20047;-75
2022/09/23 02:30:28;;;;;;;5.78;4.63;;;19.00;99.90;;;18.93;68.43;99130.72;5077902;27;20062;-75
2022/09/23 02:33:05;;;;;;;8.57;5.40;;;19.00;99.90;;;18.94;68.35;99134.28;5095146;28;20581;-75
2022/09/23 02:35:48;;;;;;;4.40;3.63;;;19.00;99.90;;;18.90;68.61;99125.03;5093154;27;20094;-75
2022/09/23 02:38:33;;;;;;;5.88;4.32;;;19.00;99.90;;;18.87;68.18;99127.31;5108982;27;20071;-75
2022/09/23 02:41:15;;;;;;;7.85;5.13;;;19.00;99.90;;;18.89;68.12;99131.69;5105733;27;20044;-75
2022/09/23 02:44:14;;;;;;;7.70;4.95;;;19.00;99.90;;;18.89;67.77;99132.50;5094699;27;20677;-75
2022/09/23 02:46:42;;;;;;;5.88;4.13;;;19.00;99.90;;;18.90;68.30;99133.28;5093346;27;20135;-75
2022/09/23 02:49:22;;;;;;;6.57;4.65;;;19.00;99.90;;;18.91;68.33;99129.44;5076520;27;20048;-75
2022/09/23 02:51:51;;;;;;;4.78;3.92;;;19.00;99.90;;;18.88;68.39;99136.38;5090866;27;20496;-75
2022/09/23 02:54:19;;;;;;;8.60;4.65;;;19.00;99.90;;;18.88;68.09;99130.88;5075565;28;20040;-75
2022/09/23 02:56:48;;;;;;;7.75;4.25;;;19.00;99.90;;;18.89;68.12;99128.94;5106422;27;20603;-75
2022/09/23 02:59:18;;;;;;;5.60;4.30;;;19.00;99.90;;;18.91;67.95;99137.69;5112067;27;20563;-75
2022/09/23 03:02:20;;;;;;;5.28;4.40;;;19.00;99.90;;;18.91;68.58;99135.72;5090429;27;20044;-75
2022/09/23 03:05:21;;;;;;;8.52;4.40;;;19.00;99.90;;;18.90;68.61;99128.59;5111516;27;20042;-75
2022/09/23 03:08:24;;;;;;;7.95;4.40;;;19.00;99.90;;;18.86;68.46;99128.44;5109508;27;20100;-75
2022/09/23 03:11:03;;;;;;;6.60;4.88;;;19.00;99.90;;;18.89;68.09;99131.69;5105859;27;20049;-75
2022/09/23 03:13:50;;;;;;;4.93;4.00;;;19.00;99.90;;;18.89;67.98;99128.94;5081477;27;20453;-75
2022/09/23 03:17:24;;;;;;;5.43;3.97;;;19.00;99.90;;;18.87;68.05;99130.06;5108948;27;20662;-75
2022/09/23 03:20:05;;;;;;;6.60;4.55;;;19.00;99.90;;;18.89;68.33;99126.19;5116357;27;20050;-75
2022/09/23 03:22:39;;;;;;;7.07;4.75;;;19.00;99.90;;;18.87;68.67;99130.06;5109762;27;20104;-75
2022/09/23 03:25:08;;;;;;;6.38;4.07;;;19.00;99.90;;;18.86;68.11;99122.16;5075565;28;20127;-75
2022/09/23 03:27:35;;;;;;;6.93;4.82;;;19.00;99.90;;;18.85;68.21;99129.59;5093600;28;20115;-75
2022/09/23 03:30:01;;;;;;;5.82;4.82;;;19.00;99.90;;;18.89;68.05;99131.69;5089405;28;20531;-75
2022/09/23 03:32:27;;;;;;;7.32;4.65;;;18.90;99.90;;;18.87;67.87;99134.75;5084750;28;20043;-75
2022/09/23 03:34:56;;;;;;;5.78;4.00;;;18.90;99.90;;;18.89;68.66;99123.44;5088829;27;20445;-75
2022/09/23 03:37:36;;;;;;;7.45;3.97;;;19.00;99.90;;;18.90;68.61;99127.78;5094922;28;20048;-75
2022/09/23 03:40:25;;;;;;;7.15;4.72;;;19.00;99.90;;;18.87;68.35;99132.78;5107101;27;20047;-75
2022/09/23 03:42:52;;;;;;;7.25;4.82;;;19.00;99.90;;;18.85;68.30;99123.25;5107486;27;20066;-75
2022/09/23 03:45:21;;;;;;;6.65;4.78;;;19.00;99.90;;;18.86;68.07;99128.44;5071062;27;20523;-75
2022/09/23 03:47:47;;;;;;;5.78;4.53;;;18.90;99.90;;;18.86;68.03;99131.19;5093180;27;20043;-75
2022/09/23 03:50:13;;;;;;;6.20;4.35;;;18.90;99.90;;;18.83;68.59;99118.09;5105101;27;20042;-75
2022/09/23 03:52:40;;;;;;;7.63;4.47;;;18.90;99.90;;;18.82;68.60;99116.47;5079385;27;20186;-75
2022/09/23 03:55:07;;;;;;;6.65;5.20;;;19.00;99.90;;;18.85;67.04;99120.50;5104660;27;20042;-75
2022/09/23 03:57:33;;;;;;;4.07;3.67;;;19.00;99.90;;;18.87;66.72;99119.06;5076281;28;20062;-75
2022/09/23 03:59:59;;;;;;;7.75;5.53;;;19.00;99.90;;;18.86;66.32;99114.69;5095939;27;20044;-75
2022/09/23 04:02:25;;;;;;;6.00;5.05;;;19.00;99.90;;;18.85;66.80;99126.84;5113104;27;20122;-75
2022/09/23 04:04:51;;;;;;;6.15;4.50;;;19.00;99.90;;;18.82;67.91;99116.47;5103698;27;20039;-75
2022/09/23 04:07:17;;;;;;;5.40;4.15;;;19.00;99.90;;;18.85;67.96;99109.50;5105317;27;20429;-75
2022/09/23 04:09:43;;;;;;;5.28;4.03;;;19.00;99.90;;;18.86;67.13;99116.66;5093885;27;20535;-75
2022/09/23 04:12:14;;;;;;;6.10;4.40;;;19.00;99.90;;;18.86;66.17;99108.41;5106899;27;20039;-75
2022/09/23 04:14:40;;;;;;;6.53;4.75;;;19.00;99.90;;;18.83;66.16;99112.59;5105336;27;20129;-75
2022/09/23 04:17:07;;;;;;;4.85;4.45;;;19.00;99.90;;;18.84;65.89;99116.16;5108520;27;20040;-75
2022/09/23 04:19:33;;;;;;;6.90;4.72;;;19.00;99.90;;;18.86;66.88;99116.66;5087704;27;20126;-75
2022/09/23 04:22:00;;;;;;;6.43;4.88;;;19.00;99.90;;;18.86;67.34;99127.63;5104021;27;20085;-75
2022/09/23 04:24:26;;;;;;;5.65;4.38;;;19.00;99.90;;;18.84;67.53;99113.41;5090083;28;20115;-75
2022/09/23 04:26:53;;;;;;;6.97;4.95;;;18.90;99.90;;;18.83;66.24;99118.09;5105820;27;20067;-75
2022/09/23 04:29:20;;;;;;;8.27;4.70;;;18.90;99.90;;;18.83;65.86;99112.59;5077656;28;20046;-75
2022/09/23 04:31:46;;;;;;;5.78;4.93;;;18.90;99.90;;;18.82;65.68;99121.16;5087514;27;20043;-75
2022/09/23 04:34:14;;;;;;;5.72;4.60;;;18.90;99.90;;;18.85;65.31;99120.50;5070782;28;20044;-75
2022/09/23 04:36:41;;;;;;;6.90;5.05;;;18.90;99.90;;;18.84;66.68;99124.41;5088548;28;20139;-75
2022/09/23 04:39:07;;;;;;;6.60;4.60;;;18.90;99.90;;;18.79;67.05;99125.34;5088016;27;20079;-77
2022/09/23 04:41:33;;;;;;;4.93;4.05;;;18.90;99.90;;;18.81;66.99;99119.53;5073776;28;20043;-77
2022/09/23 04:44:02;;;;;;;6.07;3.80;;;18.90;99.90;;;18.80;65.95;99121.50;5090701;28;20062;-77
2022/09/23 04:46:28;;;;;;;5.72;4.90;;;18.90;99.90;;;18.79;65.40;99128.09;5081141;27;21487;-77
2022/09/23 04:48:54;;;;;;;5.70;4.32;;;18.90;99.90;;;18.83;65.29;99125.53;5073835;28;20047;-76
2022/09/23 04:51:22;;;;;;;8.93;4.72;;;18.90;99.90;;;18.84;65.32;99125.19;5085492;28;20044;-77
2022/09/23 04:53:49;;;;;;;6.05;4.72;;;18.80;99.90;;;18.82;66.33;99127.44;5075233;28;20071;-77
2022/09/23 04:56:24;;;;;;;7.40;5.47;;;18.90;99.90;;;18.81;66.70;99120.34;5089827;28;20040;-77
2022/09/23 04:58:50;;;;;;;8.18;4.78;;;18.90;99.90;;;18.76;66.02;99127.94;5074813;28;20075;-77
2022/09/23 05:01:25;;;;;;;8.63;4.55;;;18.90;99.90;;;18.80;65.33;99117.91;5087800;28;20138;-77
2022/09/23 05:03:56;;;;;;;6.32;4.53;;;18.80;99.90;;;18.82;64.88;99123.91;5092700;28;20104;-77
2022/09/23 05:06:23;;;;;;;4.38;4.00;;;18.90;99.90;;;18.81;64.88;99130.53;5089416;28;20052;-77
2022/09/23 05:08:51;;;;;;;5.93;4.18;;;18.90;99.90;;;18.81;65.62;99125.84;5100535;28;20055;-77
2022/09/23 05:11:17;;;;;;;7.53;4.93;;;18.90;99.90;;;18.81;66.01;99136.84;5105261;28;20039;-77
2022/09/23 05:13:48;;;;;;;7.50;4.28;;;18.90;99.90;;;18.80;65.93;99128.91;5070105;28;20486;-77
2022/09/23 05:16:14;;;;;;;5.72;4.28;;;18.80;99.90;;;18.83;65.03;99129.09;5075812;28;20047;-77
2022/09/23 05:18:41;;;;;;;6.35;4.07;;;18.90;99.90;;;18.83;64.54;99129.09;5105780;28;20479;-76
2022/09/23 05:21:09;;;;;;;9.00;4.88;;;18.90;99.90;;;18.80;64.53;99132.50;5065856;28;20781;-76
2022/09/23 05:23:36;;;;;;;5.63;4.25;;;18.80;99.90;;;18.83;64.49;99137.34;5094736;28;20425;-77
2022/09/23 05:26:12;;;;;;;6.35;5.22;;;18.90;99.90;;;18.83;66.00;99134.59;5088210;28;20043;-77
2022/09/23 05:28:38;;;;;;;6.82;4.65;;;18.90;99.90;;;18.86;65.86;99144.13;5087812;28;20040;-76
2022/09/23 05:31:16;;;;;;;6.68;5.03;;;18.90;99.90;;;18.82;65.24;99143.13;5089373;28;20137;-77
2022/09/23 05:33:45;;;;;;;8.13;4.82;;;18.90;99.90;;;18.86;64.42;99142.19;5057896;28;20043;-76
2022/09/23 05:36:12;;;;;;;5.60;4.80;;;18.90;99.90;;;18.86;64.21;99139.44;5107310;27;20044;-76
2022/09/23 05:38:38;;;;;;;6.55;4.28;;;18.80;99.90;;;18.83;64.13;99151.06;5110579;27;20043;-77
2022/09/23 05:41:06;;;;;;;6.47;5.05;;;18.90;99.90;;;18.87;65.10;99154.78;5092473;28;20047;-76
2022/09/23 05:43:33;;;;;;;6.32;4.40;;;18.90;99.90;;;18.87;65.68;99154.78;5075698;28;20093;-76
2022/09/23 05:46:17;;;;;;;7.43;4.20;;;18.90;99.90;;;18.86;65.68;99146.88;5089594;28;20048;-76
2022/09/23 05:48:45;;;;;;;7.45;5.53;;;18.80;99.90;;;18.87;64.36;99157.53;5090734;27;20044;-76
2022/09/23 05:51:20;;;;;;;6.00;4.38;;;18.90;99.90;;;18.88;63.85;99147.38;5108501;27;20039;-76
2022/09/23 05:53:46;;;;;;;6.57;4.50;;;18.80;99.90;;;18.86;64.64;99160.63;5108727;27;20490;-76
2022/09/23 05:56:14;;;;;;;4.43;3.83;;;18.80;99.90;;;18.81;64.84;99164.31;5087939;28;20131;-76
2022/09/23 05:58:40;;;;;;;5.63;5.00;;;18.80;99.90;;;18.85;64.70;99158.97;5071326;27;20052;-76
2022/09/23 06:01:11;;;;;;;6.13;4.70;;;18.80;99.90;;;18.81;64.95;99167.06;5072098;27;20118;-76
2022/09/23 06:03:37;;;;;;;6.13;4.73;;;18.80;99.90;;;18.87;65.43;99167.72;5104102;27;20584;-77
2022/09/23 06:06:04;;;;;;;4.88;3.85;;;18.90;99.90;;;18.87;65.54;99164.97;5079943;27;20050;-76
2022/09/23 06:08:32;;;;;;;6.15;5.03;;;18.90;99.90;;;18.87;65.64;99162.22;5067458;27;20036;-76
2022/09/23 06:11:06;;;;;;;5.40;4.15;;;18.90;99.90;;;18.90;65.09;99158.03;5106634;27;20565;-77
2022/09/23 06:13:38;;;;;;;5.20;4.32;;;18.90;99.90;;;18.87;65.11;99163.03;5090301;27;20147;-76
2022/09/23 06:16:10;;;;;;;5.10;4.57;;;18.90;99.90;;;18.88;64.94;99161.13;5094825;27;20550;-77
2022/09/23 06:18:43;;;;;;;5.25;4.53;;;18.80;99.90;;;18.91;65.00;99170.66;5068801;27;20073;-77
2022/09/23 06:21:12;;;;;;;6.55;4.93;;;18.90;99.90;;;18.96;65.22;99165.00;5069642;28;20046;-77
2022/09/23 06:23:38;;;;;;;5.45;4.63;;;18.90;99.90;;;18.98;65.10;99162.72;5105283;27;20146;-77
2022/09/23 06:26:06;;;;;;;5.53;4.63;;;19.00;99.90;;;18.96;64.94;99167.75;5090516;27;20043;-77
2022/09/23 06:28:35;;;;;;;7.05;5.20;;;18.90;99.90;;;18.94;64.75;99173.56;5072422;28;20080;-77
2022/09/23 06:31:07;;;;;;;5.32;4.50;;;18.90;99.90;;;18.94;64.66;99179.06;5058624;28;20052;-77
2022/09/23 06:33:34;;;;;;;5.63;4.50;;;18.90;99.90;;;19.00;64.29;99183.28;5094180;28;20042;-77
2022/09/23 06:36:02;;;;;;;6.80;4.00;;;19.00;99.90;;;19.07;64.37;99172.63;5103942;27;20126;-77
2022/09/23 06:38:29;;;;;;;7.47;4.68;;;19.00;99.90;;;19.13;64.25;99173.28;5090636;28;20067;-77
2022/09/23 06:40:56;;;;;;;6.45;4.15;;;19.00;99.90;;;19.12;64.27;99174.41;5109263;27;20055;-77
2022/09/23 06:43:23;;;;;;;6.47;4.82;;;19.00;99.90;;;19.09;63.94;99186.06;5072657;28;20039;-77
2022/09/23 06:45:53;;;;;;;5.90;4.35;;;19.00;99.90;;;19.07;63.97;99171.81;5070492;28;20090;-77
2022/09/23 06:48:20;;;;;;;5.47;4.53;;;19.00;99.90;;;19.06;63.95;99184.75;5106297;27;20060;-77
2022/09/23 06:50:48;;;;;;;5.47;4.00;;;19.00;99.90;;;19.06;63.88;99189.44;5100696;27;20488;-77
2022/09/23 06:53:15;;;;;;;5.70;4.18;;;19.00;99.90;;;19.12;64.21;99184.59;5099475;27;20126;-77
2022/09/23 06:55:42;;;;;;;4.95;4.45;;;19.00;99.90;;;19.14;64.30;99190.59;5071122;28;20054;-77
2022/09/23 06:58:08;;;;;;;6.00;4.72;;;19.10;99.90;;;19.13;64.17;99176.03;5073700;27;20089;-77
2022/09/23 07:00:35;;;;;;;7.90;4.00;;;19.10;99.90;;;19.13;63.77;99180.72;5106106;27;20040;-77
2022/09/23 07:03:06;;;;;;;7.00;4.40;;;19.10;99.90;;;19.18;63.45;99184.13;5094363;27;20074;-77
2022/09/23 07:05:33;;;;;;;5.13;4.50;;;19.10;99.90;;;19.20;63.40;99187.34;5069573;28;20340;-76
2022/09/23 07:07:59;;;;;;;7.15;4.60;;;19.10;99.90;;;19.24;63.40;99184.78;5070962;28;20047;-77
2022/09/23 07:10:28;;;;;;;7.10;4.38;;;19.20;99.90;;;19.23;63.62;99186.75;5088854;28;20418;-77
2022/09/23 07:12:54;;;;;;;5.20;4.13;;;19.20;99.90;;;19.27;63.75;99182.19;5090904;27;20131;-76
2022/09/23 07:15:23;;;;;;;4.68;4.22;;;19.20;99.90;;;19.27;63.00;99187.69;5071409;27;20039;-77
2022/09/23 07:17:49;;;;;;;13.02;4.35;;;19.20;99.90;;;19.32;62.85;99185.94;5074352;28;20040;-77
2022/09/23 07:20:16;;;;;;;7.28;4.20;;;19.20;99.90;;;19.36;62.65;99189.63;5104898;27;20036;-77
2022/09/23 07:22:48;;;;;;;6.18;4.45;;;19.20;99.90;;;19.35;62.44;99190.78;5091205;27;20151;-77
2022/09/23 07:25:14;;;;;;;;;;;19.30;99.90;;;19.34;63.00;99189.97;5098454;27;20444;-77
2022/09/23 07:27:43;;;;;;;4.82;4.15;;;19.30;99.90;;;19.39;62.95;99197.28;5108927;27;19923;-77
2022/09/23 07:30:10;;;;;;;5.18;3.88;;;19.30;99.90;;;19.37;62.80;99191.28;5108134;27;20410;-77
2022/09/23 07:32:36;;;;;;;7.20;4.80;;;19.30;99.90;;;19.41;62.39;99186.72;5076381;27;20040;-77
2022/09/23 07:35:01;;;;;;;7.25;4.93;;;19.30;99.90;;;19.42;62.14;99196.63;5108809;27;20039;-77
2022/09/23 07:37:28;;;;;;;5.72;4.60;;;19.40;99.90;;;19.42;62.08;99191.13;5091248;27;20098;-77
2022/09/23 07:39:54;;;;;;;7.25;4.38;;;19.40;99.90;;;19.40;62.34;99193.38;5105891;27;20047;-77
2022/09/23 07:42:23;;;;;;;4.60;3.63;;;19.40;99.90;;;19.37;62.85;99186.56;5058661;28;20044;-77
2022/09/23 07:44:51;;;;;;;4.97;4.38;;;19.40;99.90;;;19.40;62.87;99187.88;5060208;28;20538;-77
2022/09/23 07:47:17;;;;;;;4.68;3.85;;;19.40;99.90;;;19.40;62.55;99190.63;5086088;28;20482;-77
2022/09/23 07:49:43;;;;;;;4.93;4.00;;;19.40;99.90;;;19.40;62.53;99190.63;5102479;28;20047;-77
2022/09/23 07:52:09;;;;;;;7.07;3.97;;;19.40;99.90;;;19.42;62.16;99188.38;5080285;27;20043;-77
2022/09/23 07:54:35;;;;;;;9.68;5.10;;;19.50;99.90;;;19.44;62.16;99186.91;5083499;28;20487;-77
2022/09/23 07:57:01;;;;;;;5.13;4.30;;;19.50;99.90;;;19.45;62.36;99184.97;5089770;28;20050;-77
2022/09/23 07:59:27;;;;;;;4.78;3.55;;;19.50;99.90;;;19.44;62.33;99186.09;5085332;27;20075;-77
2022/09/23 08:01:55;;;;;;;5.28;4.75;;;19.50;99.90;;;19.46;62.48;99178.31;5094131;27;20065;-77
2022/09/23 08:04:28;;;;;;;6.07;4.25;;;19.50;99.90;;;19.49;61.86;99177.69;5080017;27;20035;-77
2022/09/23 08:07:00;;;;;;;5.20;3.33;;;19.50;99.90;;;19.48;61.85;99182.38;5058073;28;20119;-77
2022/09/23 08:09:30;;;;;;;5.45;4.15;;;19.50;99.90;;;19.47;61.86;99185.47;5080127;27;20043;-77
2022/09/23 08:11:57;;;;;;;4.65;4.10;;;19.50;99.90;;;19.48;61.73;99176.06;5092965;27;20538;-77
2022/09/23 08:14:23;;;;;;;7.05;4.28;;;19.60;99.90;;;19.50;62.20;99180.09;5088167;28;20526;-77
2022/09/23 08:16:49;;;;;;;5.82;4.05;;;19.60;99.90;;;19.53;61.83;99184.94;5087907;28;20040;-77
2022/09/23 08:19:15;;;;;;;5.32;4.32;;;19.60;99.90;;;19.55;61.94;99175.59;5066369;28;20035;-77
2022/09/23 08:21:42;;;;;;;4.68;4.10;;;19.60;99.90;;;19.57;61.88;99179.63;5087860;28;20100;-77
2022/09/23 08:24:12;;;;;;;5.88;3.90;;;19.60;99.90;;;19.61;61.32;99183.34;5073135;28;20122;-77
2022/09/23 08:26:38;;;;;;;5.03;4.28;;;19.60;99.90;;;19.67;60.94;99173.81;5068827;28;20066;-77
2022/09/23 08:29:04;;;;;;;5.70;4.13;;;19.70;99.90;;;19.67;60.94;99176.59;5085810;28;20044;-77
2022/09/23 08:31:30;;;;;;;4.72;3.83;;;19.70;99.90;;;19.66;61.03;99168.59;5080192;28;20042;-77
2022/09/23 08:33:57;;;;;;;4.95;3.85;;;19.70;99.90;;;19.73;60.98;99171.72;5102017;27;20154;-77
2022/09/23 08:36:24;;;;;;;4.88;3.72;;;19.70;99.90;;;19.73;60.67;99163.44;5057350;28;20511;-77
2022/09/23 08:38:50;;;;;;;5.95;4.20;;;19.70;99.90;;;19.77;60.53;99163.59;5093098;27;20087;-77
2022/09/23 08:41:31;;;;;;;4.82;4.10;;;19.70;99.90;;;19.83;60.24;99159.56;5088029;28;20043;-77
2022/09/23 08:44:22;;;;;;;6.10;3.65;;;19.70;99.90;;;19.88;59.71;99157.44;5090761;28;20044;-77
2022/09/23 08:46:55;;;;;;;5.65;4.45;;;19.70;99.90;;;19.92;59.69;99168.59;5100154;27;20520;-77
2022/09/23 08:49:35;;;;;;;6.03;4.07;;;19.80;99.90;;;19.88;60.08;99160.19;5088626;27;20082;-77
2022/09/23 08:52:14;;;;;;;5.68;4.88;;;19.80;99.90;;;19.89;59.75;99156.28;5100109;27;20111;-77
2022/09/23 08:54:40;;;;;;;5.10;4.38;;;19.80;99.90;;;19.83;59.78;99148.56;5085288;28;20065;-77
2022/09/23 08:57:08;;;;;;;4.63;4.15;;;19.80;99.90;;;19.85;59.82;99146.28;5071341;28;20079;-77
2022/09/23 08:59:41;;;;;;;4.13;3.63;;;19.80;99.90;;;19.83;59.99;99154.84;5071040;28;20054;-77
2022/09/23 09:02:20;;;;;;;5.05;4.28;;;19.80;99.90;;;19.82;60.19;99152.41;5066470;28;20126;-77
2022/09/23 09:04:51;;;;;;;4.85;3.65;;;19.80;99.90;;;19.82;60.19;99141.41;5076830;28;20114;-77
2022/09/23 09:07:21;;;;;;;4.05;3.60;;;19.90;99.90;;;19.88;59.90;99148.38;5074161;28;20050;-77
2022/09/23 09:09:55;;;;;;;3.47;3.17;;;19.90;99.90;;;19.85;59.93;99143.53;5086647;28;20130;-78
2022/09/23 09:12:29;;;;;;;4.45;3.88;;;19.90;99.90;;;19.86;59.87;99151.44;5089484;27;20040;-77
2022/09/23 09:15:13;;;;;;;4.95;4.18;;;19.90;99.90;;;20.01;59.16;99155.63;5097977;27;20038;-77
2022/09/23 09:18:06;;;;;;;4.70;4.00;;;19.90;99.90;;;20.03;59.31;99149.81;5076382;28;20550;-77
2022/09/23 09:21:12;;;;;;;4.28;3.58;;;19.90;99.90;;;20.07;58.98;99157.06;5096082;27;20043;-77
2022/09/23 09:23:56;;;;;;;4.43;3.88;;;20.00;99.90;;;20.08;58.88;99144.94;5113483;27;20102;-77
2022/09/23 09:26:26;;;;;;;4.38;3.90;;;20.00;99.90;;;20.08;58.86;99141.38;5073078;28;20131;-77
2022/09/23 09:29:04;;;;;;;5.57;3.75;;;20.00;99.90;;;20.04;59.00;99143.16;5104857;27;20553;-77
2022/09/23 09:31:42;;;;;;;5.97;3.55;;;20.00;99.90;;;20.03;58.73;99145.09;5090962;28;20044;-77
2022/09/23 09:34:33;;;;;;;4.85;3.97;;;20.00;99.90;;;20.04;58.86;99143.16;5077719;28;20065;-77
2022/09/23 09:37:05;;;;;;;5.07;3.90;;;20.00;99.90;;;20.02;58.88;99132.44;5108440;27;20032;-77
2022/09/23 09:39:32;;;;;;;3.50;2.97;;;20.00;99.90;;;19.96;59.21;99133.78;5111320;27;20039;-77
2022/09/23 09:41:59;;;;;;;4.15;3.75;;;20.00;99.90;;;20.03;58.73;99125.03;5106516;27;20047;-77
2022/09/23 09:44:30;;;;;;;5.03;3.65;;;20.00;99.90;;;20.05;58.92;99131.81;5067703;27;20053;-77
2022/09/23 09:47:31;;;;;;;4.72;3.80;;;20.10;99.90;;;20.10;58.62;99128.88;5111268;27;20107;-77
2022/09/23 09:50:20;;;;;;;4.90;3.47;;;20.00;99.90;;;20.08;58.65;99128.41;5090864;28;20200;-77
2022/09/23 09:52:55;;;;;;;4.97;3.80;;;20.10;99.90;;;20.09;58.69;99126.47;5078273;27;20391;-77
2022/09/23 09:55:27;;;;;;;4.57;3.80;;;20.10;99.90;;;20.11;58.41;99126.94;5071873;27;20047;-77
2022/09/23 09:58:03;;;;;;;3.95;3.38;;;20.10;99.90;;;20.16;58.43;99129.50;5059129;27;20043;-77
2022/09/23 10:00:29;;;;;;;5.18;3.38;;;20.10;99.90;;;20.16;58.25;99127.56;5078934;28;20040;-78
2022/09/23 10:03:22;;;;;;;3.97;3.60;;;20.10;99.90;;;20.15;58.16;99120.44;5112670;27;20173;-77
2022/09/23 10:05:51;;;;;;;5.60;4.07;;;20.10;99.90;;;20.11;58.35;99113.97;5082676;27;20570;-77
2022/09/23 10:08:33;;;;;;;4.32;3.92;;;20.10;99.90;;;20.14;58.39;99118.00;5074914;27;20121;-77
2022/09/23 10:11:14;;;;;;;5.10;3.50;;;20.10;99.90;;;20.14;58.43;99110.56;5079025;28;20032;-78
2022/09/23 10:14:01;;;;;;;4.93;4.00;;;20.20;99.90;;;20.20;58.62;99113.13;5075382;28;20101;-77
2022/09/23 10:16:30;;;;;;;4.22;3.58;;;20.20;99.90;;;20.11;58.41;99116.72;5085325;27;20055;-77
2022/09/23 10:18:56;;;;;;;3.72;3.42;;;20.20;99.90;;;20.19;58.01;99108.78;5093228;27;20049;-77
2022/09/23 10:21:23;;;;;;;3.28;2.88;;;20.20;99.90;;;20.16;58.36;99111.03;5090820;28;20078;-77
2022/09/23 10:23:56;;;;;;;4.20;3.40;;;20.20;99.90;;;20.16;58.23;99105.53;5091102;27;20048;-77
2022/09/23 10:26:42;;;;;;;3.85;2.92;;;20.20;99.90;;;20.25;58.08;99099.16;5071097;28;20134;-77
2022/09/23 10:29:27;;;;;;;3.40;3.10;;;20.20;99.90;;;20.22;57.99;99103.41;5105431;27;20035;-77
2022/09/23 10:32:38;;;;;;;4.35;3.58;;;20.20;99.90;;;20.26;57.53;99101.59;5102573;27;20083;-78
2022/09/23 10:35:12;;;;;;;4.25;3.10;;;20.20;99.90;;;20.19;58.09;99092.25;5096046;27;20045;-77
2022/09/23 10:37:48;;;;;;;3.45;3.05;;;20.20;99.90;;;20.16;58.10;99096.47;5106380;27;20388;-77
2022/09/23 10:47:00;;;;;;;4.10;3.17;;;20.30;99.90;;;20.23;57.90;99096.75;5042427;28;20064;-77
2022/09/23 10:49:54;;;;;;;4.13;3.17;;;20.30;99.90;;;20.19;58.23;99098.56;5034774;28;20051;-77
2022/09/23 10:53:09;;;;;;;3.63;3.13;;;20.30;99.90;;;20.18;58.10;99105.22;5098508;27;20170;-77
2022/09/23 10:55:41;;;;;;;3.60;3.22;;;20.30;99.90;;;20.22;57.89;99094.31;5060360;27;20086;-77